臺北飛航情報區 - 掃描席(區管/近場)

METAR RCTP 221130Z 06017KT 9999 FEW008 BKN013 BKN025 16/15 Q1019 NOSIG RMK A3011=

站台狀態:Online
最後更新:2019-02-22 19:45:01